Time;durP1;ratioP1;P1;durP2;ratioP2;P2;SDS_P1;SDS_P2;PMS_P1;PMS_P2;Temp;Humidity;BMP_temperature;BMP_pressure;BME280_temperature;BME280_humidity;BME280_pressure;Samples;Min_cycle;Max_cycle;Signal;HPM_P1;HPM_P2
2024/02/22 00:01:13;;;;;;;24.92;5.32;;;;;;;-146.27;100.00;41856.19;5067478;28;20040;-74
2024/02/22 00:03:38;;;;;;;22.08;5.13;;;;;;;-146.27;100.00;41874.06;5068603;28;20029;-73
2024/02/22 00:06:05;;;;;;;13.35;4.28;;;;;;;-146.27;100.00;41868.09;5068792;28;20040;-74
2024/02/22 00:08:30;;;;;;;23.25;5.50;;;;;;;-146.27;100.00;41921.78;5067610;28;20036;-74
2024/02/22 00:10:57;;;;;;;22.75;6.13;;;;;;;-146.27;100.00;41959.56;5069409;28;20039;-74
2024/02/22 00:13:23;;;;;;;23.75;6.00;;;;;;;-146.27;100.00;41870.09;5068103;28;20511;-72
2024/02/22 00:15:49;;;;;;;21.52;5.68;;;;;;;-146.27;100.00;41888.00;5066919;28;20036;-74
2024/02/22 00:18:14;;;;;;;22.17;6.68;;;;;;;-146.27;100.00;42019.22;5067591;28;20127;-74
2024/02/22 00:20:40;;;;;;;31.63;6.82;;;;;;;-146.27;100.00;41939.69;5067499;28;20091;-74
2024/02/22 00:23:05;;;;;;;33.13;6.20;;;;;;;-146.27;100.00;41911.84;5067313;28;20032;-74
2024/02/22 00:25:32;;;;;;;27.08;6.68;;;;;;;-146.27;100.00;41943.66;5066214;28;20033;-73
2024/02/22 00:27:57;;;;;;;23.70;5.82;;;;;;;-146.27;100.00;41850.22;5062790;28;20028;-74
2024/02/22 00:30:24;;;;;;;27.85;5.93;;;;;;;-146.27;100.00;41963.56;5055769;28;20373;-73
2024/02/22 00:32:50;;;;;;;25.83;5.75;;;;;;;-146.27;100.00;41919.81;5069258;28;20085;-73
2024/02/22 00:35:16;;;;;;;27.42;6.60;;;;;;;-146.27;100.00;41991.41;5072140;28;20439;-73
2024/02/22 00:37:41;;;;;;;32.63;6.85;;;;;;;-146.27;100.00;41876.06;5071847;28;20029;-73
2024/02/22 00:40:09;;;;;;;32.95;7.43;;;;;;;-146.27;100.00;41899.94;5072516;28;20082;-73
2024/02/22 00:42:34;;;;;;;38.42;6.65;;;;;;;-146.27;99.59;41832.31;5072664;28;20400;-74
2024/02/22 00:45:00;;;;;;;38.88;6.45;;;;;;;-146.27;99.38;41923.78;5072320;28;20021;-74
2024/02/22 00:47:25;;;;;;;46.58;6.95;;;;;;;-146.27;99.45;41903.91;5071061;28;20035;-73
2024/02/22 00:49:51;;;;;;;47.45;6.97;;;;;;;-146.27;100.00;41985.44;5070036;28;20036;-74
2024/02/22 00:52:17;;;;;;;43.20;7.22;;;;;;;-146.27;100.00;41915.84;5070123;28;20029;-73
2024/02/22 00:54:43;;;;;;;45.83;7.35;;;;;;;-146.27;100.00;41880.03;5068704;28;20033;-75
2024/02/22 00:57:09;;;;;;;40.70;6.72;;;;;;;-146.27;100.00;41979.47;5069246;28;20115;-73
2024/02/22 00:59:34;;;;;;;47.85;7.45;;;;;;;-146.27;100.00;41917.81;5071699;28;20112;-74
2024/02/22 01:02:00;;;;;;;50.80;8.98;;;;;;;-146.27;100.00;41947.66;5067462;28;20520;-74
2024/02/22 01:04:26;;;;;;;50.33;8.18;;;;;;;-146.27;100.00;41951.63;5065712;28;20023;-74
2024/02/22 01:06:52;;;;;;;41.67;7.00;;;;;;;-146.27;100.00;41967.53;5071583;28;20024;-74
2024/02/22 01:09:18;;;;;;;35.97;6.97;;;;;;;-146.27;100.00;41945.66;5070422;28;20027;-74
2024/02/22 01:11:44;;;;;;;48.50;6.15;;;;;;;-146.27;100.00;41911.84;5070794;28;20021;-74
2024/02/22 01:14:10;;;;;;;31.98;5.28;;;;;;;-146.27;100.00;41927.75;5067747;28;20040;-74
2024/02/22 01:16:35;;;;;;;39.30;7.32;;;;;;;-146.27;100.00;41882.03;5070949;28;20031;-74
2024/02/22 01:19:01;;;;;;;34.35;6.00;;;;;;;-146.27;100.00;41935.72;5068110;28;20028;-75
2024/02/22 01:21:26;;;;;;;38.15;5.40;;;;;;;-146.27;100.00;41927.75;5070758;28;20396;-74
2024/02/22 01:23:51;;;;;;;34.10;4.43;;;;;;;-146.27;100.00;41989.41;5071707;28;20020;-74
2024/02/22 01:26:17;;;;;;;37.95;6.55;;;;;;;-146.27;100.00;41856.19;5068154;28;20048;-74
2024/02/22 01:28:44;;;;;;;38.85;5.18;;;;;;;-146.27;100.00;41927.75;5067382;28;20106;-73
2024/02/22 01:31:10;;;;;;;40.20;5.43;;;;;;;-146.27;100.00;41975.50;5069352;28;20032;-73
2024/02/22 01:33:36;;;;;;;47.25;6.40;;;;;;;-146.27;100.00;41991.41;5069923;28;20029;-73
2024/02/22 01:36:02;;;;;;;47.40;7.18;;;;;;;-146.27;100.00;41882.03;5068293;28;20035;-74
2024/02/22 01:38:27;;;;;;;41.60;6.07;;;;;;;-146.27;99.40;41874.06;5068566;28;20553;-73
2024/02/22 01:40:53;;;;;;;49.08;8.48;;;;;;;-146.27;100.00;41981.44;5069868;28;20024;-74
2024/02/22 01:43:18;;;;;;;58.38;7.30;;;;;;;-146.27;100.00;41959.56;5067580;28;20055;-74
2024/02/22 01:45:44;;;;;;;57.22;8.40;;;;;;;-146.27;100.00;42011.28;5069340;28;20032;-74
2024/02/22 01:48:09;;;;;;;48.97;7.13;;;;;;;-146.27;100.00;41921.78;5068086;28;20044;-74
2024/02/22 01:50:39;;;;;;;65.47;8.55;;;;;;;-146.27;99.96;41931.75;5066410;28;20028;-75
2024/02/22 01:53:05;;;;;;;53.10;6.68;;;;;;;-146.27;100.00;41951.63;5068773;28;20020;-75
2024/02/22 01:55:31;;;;;;;45.28;7.28;;;;;;;-146.27;99.85;41993.38;5061954;28;20020;-75
2024/02/22 01:57:56;;;;;;;58.22;8.27;;;;;;;-146.27;99.90;41937.72;5067268;28;20545;-75
2024/02/22 02:00:23;;;;;;;49.30;7.30;;;;;;;-146.27;100.00;42015.25;5066607;28;20448;-74
2024/02/22 02:02:51;;;;;;;39.55;6.35;;;;;;;-146.27;99.75;41907.88;5070157;28;20028;-74
2024/02/22 02:05:17;;;;;;;59.70;6.95;;;;;;;-146.27;98.97;41961.56;5069187;28;20029;-74
2024/02/22 02:07:43;;;;;;;53.95;7.20;;;;;;;-146.27;99.77;42009.28;5069666;28;20036;-74
2024/02/22 02:10:09;;;;;;;57.13;7.22;;;;;;;-146.27;99.99;41969.53;5070235;28;20033;-73
2024/02/22 02:12:35;;;;;;;65.70;6.78;;;;;;;-146.27;99.19;42007.31;5070554;28;20437;-73
2024/02/22 02:15:00;;;;;;;48.60;6.65;;;;;;;-146.27;99.17;41983.44;5068234;28;20062;-74
2024/02/22 02:17:26;;;;;;;38.53;5.80;;;;;;;-146.27;98.95;42037.13;5069022;28;20396;-74
2024/02/22 02:19:56;;;;;;;43.03;6.05;;;;;;;-146.27;99.04;41967.53;5059210;28;20036;-74
2024/02/22 02:22:28;;;;;;;57.97;6.78;;;;;;;-146.27;99.73;42003.31;5069111;28;20028;-74
2024/02/22 02:25:00;;;;;;;57.58;7.07;;;;;;;-146.27;100.00;42009.28;5056186;28;20029;-74
2024/02/22 02:27:26;;;;;;;55.90;6.10;;;;;;;-146.27;98.93;42051.06;5067790;28;20044;-73
2024/02/22 02:29:51;;;;;;;49.25;6.72;;;;;;;-146.27;99.40;42015.25;5068015;28;20097;-74
2024/02/22 02:32:17;;;;;;;60.72;6.97;;;;;;;-146.27;98.78;42140.53;5064582;28;20103;-73
2024/02/22 02:34:42;;;;;;;53.88;6.80;;;;;;;-146.27;99.44;42015.25;5067636;28;20029;-75
2024/02/22 02:37:07;;;;;;;65.45;8.05;;;;;;;-146.27;99.46;42039.13;5068276;28;20025;-74
2024/02/22 02:39:33;;;;;;;62.85;7.32;;;;;;;-146.27;98.42;42088.84;5061328;28;20102;-73
2024/02/22 02:41:59;;;;;;;45.47;6.50;;;;;;;-146.27;98.90;42070.94;5069243;28;20032;-73
2024/02/22 02:44:24;;;;;;;56.10;6.43;;;;;;;-146.27;98.58;42074.91;5067631;28;20051;-74
2024/02/22 02:46:50;;;;;;;48.80;6.35;;;;;;;-146.27;98.75;42086.84;5069310;28;20024;-73
2024/02/22 02:49:16;;;;;;;49.72;6.68;;;;;;;-146.27;99.02;42114.69;5067269;28;20031;-73
2024/02/22 02:51:41;;;;;;;56.63;7.72;;;;;;;-146.27;98.69;42086.84;5066780;28;20037;-73
2024/02/22 02:54:07;;;;;;;49.88;6.70;;;;;;;-146.27;98.91;42192.25;5068238;28;20040;-74
2024/02/22 02:56:32;;;;;;;45.65;6.47;;;;;;;-146.27;98.66;42035.16;5068138;28;20385;-74
2024/02/22 02:58:58;;;;;;;45.20;7.88;;;;;;;-146.27;97.88;42074.91;5067363;28;20028;-74
2024/02/22 03:01:24;;;;;;;51.47;7.20;;;;;;;-146.27;98.74;42184.28;5066401;28;20059;-73
2024/02/22 03:03:49;;;;;;;42.03;6.20;;;;;;;-146.27;97.94;42130.59;5066261;28;20081;-73
2024/02/22 03:06:16;;;;;;;59.83;7.50;;;;;;;-146.27;98.92;42126.63;5066817;28;20476;-73
2024/02/22 03:08:41;;;;;;;56.60;7.57;;;;;;;-146.27;98.51;42166.38;5066198;28;20136;-73
2024/02/22 03:11:08;;;;;;;66.85;8.65;;;;;;;-146.27;97.92;42019.22;5073817;28;20773;-74
2024/02/22 03:13:33;;;;;;;58.88;7.88;;;;;;;-146.27;98.70;42178.31;5069189;28;20177;-74
2024/02/22 03:15:59;;;;;;;53.90;6.93;;;;;;;-146.27;97.69;42118.66;5067551;28;20115;-73
2024/02/22 03:18:25;;;;;;;61.60;7.47;;;;;;;-146.27;97.59;42096.78;5068779;28;20126;-73
2024/02/22 03:20:51;;;;;;;63.45;7.50;;;;;;;-146.27;96.93;42084.84;5069083;28;20090;-73
2024/02/22 03:23:17;;;;;;;46.97;7.88;;;;;;;-146.27;97.54;42170.38;5067232;28;20032;-73
2024/02/22 03:25:42;;;;;;;48.25;7.90;;;;;;;-146.27;97.47;42076.91;5066065;28;20053;-74
2024/02/22 03:28:12;;;;;;;55.90;8.98;;;;;;;-146.27;97.54;42158.44;5066608;28;20020;-74
2024/02/22 03:30:39;;;;;;;53.85;7.20;;;;;;;-146.27;98.59;42170.38;5065696;28;20056;-73
2024/02/22 03:33:05;;;;;;;64.88;7.95;;;;;;;-146.27;98.00;42178.31;5060972;28;20111;-73
2024/02/22 03:35:31;;;;;;;59.05;6.72;;;;;;;-146.27;97.70;42126.63;5068641;28;20146;-73
2024/02/22 03:37:56;;;;;;;68.65;7.65;;;;;;;-146.27;97.68;42160.41;5078149;28;20036;-73
2024/02/22 03:40:22;;;;;;;58.58;7.93;;;;;;;-146.27;97.90;42164.41;5065516;28;20024;-73
2024/02/22 03:42:47;;;;;;;70.05;8.07;;;;;;;-146.27;98.04;42202.19;5068571;28;20032;-73
2024/02/22 03:45:13;;;;;;;66.28;8.85;;;;;;;-146.27;98.60;42257.88;5067919;28;20473;-74
2024/02/22 03:47:38;;;;;;;59.55;9.02;;;;;;;-146.27;97.87;42162.41;5063946;28;20126;-73
2024/02/22 03:50:04;;;;;;;64.00;6.78;;;;;;;-146.27;97.64;42182.28;5054643;28;20025;-74
2024/02/22 03:52:30;;;;;;;50.33;7.93;;;;;;;-146.27;98.44;42247.91;5071458;28;20625;-73
2024/02/22 03:54:56;;;;;;;58.83;7.60;;;;;;;-146.27;98.82;42237.97;5067022;28;20048;-73
2024/02/22 03:57:21;;;;;;;71.47;9.50;;;;;;;-146.27;98.45;42230.03;5066970;28;20024;-73
2024/02/22 03:59:47;;;;;;;50.03;7.18;;;;;;;-146.27;98.18;42245.94;5063884;28;20035;-73
2024/02/22 04:02:12;;;;;;;56.00;6.97;;;;;;;-146.27;98.01;42162.41;5067790;28;20151;-73
2024/02/22 04:04:38;;;;;;;62.05;7.57;;;;;;;-146.27;97.48;42154.47;5062235;28;20052;-73
2024/02/22 04:07:04;;;;;;;52.15;7.22;;;;;;;-146.27;97.51;42241.97;5064527;28;20392;-74
2024/02/22 04:09:29;;;;;;;56.25;6.82;;;;;;;-146.27;97.21;42218.09;5067668;28;20112;-73
2024/02/22 04:11:55;;;;;;;59.42;7.20;;;;;;;-146.27;97.14;42257.88;5070161;28;20020;-74
2024/02/22 04:14:20;;;;;;;52.78;7.57;;;;;;;-146.27;96.95;42142.53;5071042;28;20039;-73
2024/02/22 04:16:46;;;;;;;50.25;5.88;;;;;;;-146.27;96.81;42241.97;5072417;28;20035;-73
2024/02/22 04:19:11;;;;;;;38.08;5.93;;;;;;;-146.27;97.31;42325.47;5070274;28;20023;-74
2024/02/22 04:21:41;;;;;;;47.83;7.15;;;;;;;-146.27;98.07;42289.69;5070743;28;20063;-73
2024/02/22 04:24:07;;;;;;;44.08;6.18;;;;;;;-146.27;97.73;42287.69;5094625;28;20043;-74
2024/02/22 04:26:45;;;;;;;44.70;6.15;;;;;;;-146.27;96.72;42261.84;5070344;28;20591;-73
2024/02/22 04:29:11;;;;;;;56.00;6.10;;;;;;;-146.27;96.85;42243.94;5070137;28;20024;-73
2024/02/22 04:31:37;;;;;;;43.17;6.40;;;;;;;-146.27;95.79;42263.81;5070098;28;20027;-73
2024/02/22 04:34:02;;;;;;;47.25;6.57;;;;;;;-146.27;96.02;42253.88;5071795;28;20536;-73
2024/02/22 04:36:27;;;;;;;50.35;5.55;;;;;;;-146.27;95.94;42353.31;5070365;28;20112;-73
2024/02/22 04:38:54;;;;;;;50.53;6.65;;;;;;;-146.27;95.90;42365.25;5068359;28;20112;-75
2024/02/22 04:41:23;;;;;;;45.38;7.20;;;;;;;-146.27;95.77;42345.38;5067814;28;20054;-73
2024/02/22 04:43:48;;;;;;;41.92;6.13;;;;;;;-146.27;95.63;42387.13;5058159;28;20055;-73
2024/02/22 04:46:14;;;;;;;53.25;6.93;;;;;;;-146.27;95.02;42377.19;5070026;28;20456;-73
2024/02/22 04:48:39;;;;;;;40.80;5.75;;;;;;;-146.27;95.39;42418.94;5063663;28;20058;-75
2024/02/22 04:51:04;;;;;;;41.15;5.38;;;;;;;-146.27;96.17;42432.88;5070682;28;20070;-72
2024/02/22 04:53:30;;;;;;;42.10;5.78;;;;;;;-146.27;96.01;42544.25;5065976;28;22389;-74
2024/02/22 04:55:56;;;;;;;46.28;4.65;;;;;;;-146.27;95.35;42476.63;5061512;28;20032;-72
2024/02/22 04:58:21;;;;;;;33.55;5.00;;;;;;;-146.27;95.17;42458.72;5069844;28;20409;-71
2024/02/22 05:00:47;;;;;;;57.25;6.30;;;;;;;-146.27;95.27;42524.34;5066366;28;20040;-73
2024/02/22 05:03:12;;;;;;;45.33;6.50;;;;;;;-146.27;94.92;42502.47;5071344;28;20024;-73
2024/02/22 05:05:39;;;;;;;37.03;5.50;;;;;;;-146.27;94.73;42548.22;5069828;28;20020;-72
2024/02/22 05:08:05;;;;;;;42.83;6.63;;;;;;;-146.27;94.35;42536.28;5071347;28;20065;-73
2024/02/22 05:10:31;;;;;;;45.28;4.65;;;;;;;-146.27;94.57;42578.03;5071059;28;20516;-72
2024/02/22 05:12:57;;;;;;;37.97;5.93;;;;;;;-146.27;94.99;42617.81;5064074;28;20029;-73
2024/02/22 05:15:22;;;;;;;49.35;5.63;;;;;;;-146.27;95.00;42627.78;5071104;28;20500;-71
2024/02/22 05:17:48;;;;;;;42.30;4.60;;;;;;;-146.27;95.96;42647.66;5071765;28;20027;-72
2024/02/22 05:20:13;;;;;;;43.28;5.03;;;;;;;-146.27;96.28;42653.63;5070530;28;20046;-72
2024/02/22 05:22:39;;;;;;;54.17;6.10;;;;;;;-146.27;97.19;42699.38;5071002;28;20040;-73
2024/02/22 05:25:08;;;;;;;53.22;7.25;;;;;;;-146.27;96.75;42572.09;5070155;28;20116;-73
2024/02/22 05:27:35;;;;;;;46.15;5.93;;;;;;;-146.27;95.78;42601.91;5071708;28;20045;-73
2024/02/22 05:30:00;;;;;;;57.38;6.07;;;;;;;-146.27;96.08;42560.16;5069398;28;20494;-73
2024/02/22 05:32:26;;;;;;;50.33;6.60;;;;;;;-146.27;96.36;42613.84;5069858;28;20916;-74
2024/02/22 05:34:51;;;;;;;49.25;5.18;;;;;;;-146.27;96.10;42615.84;5066640;28;20400;-72
2024/02/22 05:37:17;;;;;;;59.08;6.95;;;;;;;-146.27;95.77;42540.25;5070744;28;20484;-72
2024/02/22 05:39:42;;;;;;;51.83;7.07;;;;;;;-146.27;97.03;42651.63;5070906;28;20476;-73
2024/02/22 05:42:07;;;;;;;45.58;4.90;;;;;;;-146.27;96.54;42635.72;5069927;28;20028;-73
2024/02/22 05:44:33;;;;;;;39.53;5.10;;;;;;;-146.27;97.45;42639.69;5070593;28;20025;-73
2024/02/22 05:46:58;;;;;;;38.90;5.35;;;;;;;-146.27;97.74;42627.78;5070032;28;20198;-73
2024/02/22 05:49:23;;;;;;;48.90;6.57;;;;;;;-146.27;96.41;42530.31;5069295;28;20016;-73
2024/02/22 05:51:49;;;;;;;43.13;6.40;;;;;;;-146.27;97.06;42572.09;5070306;28;20028;-73
2024/02/22 05:54:14;;;;;;;51.72;5.97;;;;;;;-146.27;97.63;42900.25;5072115;28;20035;-72
2024/02/22 05:56:39;;;;;;;42.20;6.72;;;;;;;-146.27;98.13;43035.50;5070581;28;20369;-72
2024/02/22 05:59:06;;;;;;;57.47;8.13;;;;;;;-146.27;98.53;43041.47;5068941;28;20075;-74
2024/02/22 06:01:32;;;;;;;48.85;5.70;;;;;;;-146.27;96.93;42802.78;5069669;28;20051;-73
2024/02/22 06:03:58;;;;;;;51.97;7.90;;;;;;;-146.27;96.40;42794.84;5071083;28;20107;-75
2024/02/22 06:06:23;;;;;;;46.13;6.00;;;;;;;-146.27;96.35;42989.75;5067575;28;20038;-71
2024/02/22 06:08:48;;;;;;;36.97;5.75;;;;;;;-146.27;97.04;42926.09;5068943;28;20103;-71
2024/02/22 06:11:18;;;;;;;43.47;7.82;;;;;;;-146.27;96.76;42846.53;5070109;28;20051;-73
2024/02/22 06:13:43;;;;;;;57.58;7.63;;;;;;;-146.27;97.08;42874.38;5067477;28;20105;-73
2024/02/22 06:16:09;;;;;;;48.70;6.53;;;;;;;-146.27;96.68;42824.66;5067673;28;20032;-73
2024/02/22 06:18:35;;;;;;;55.38;6.28;;;;;;;-146.27;97.32;42878.38;5067044;28;20057;-72
2024/02/22 06:21:02;;;;;;;55.08;7.97;;;;;;;-146.27;97.29;42846.53;5068229;28;20025;-74
2024/02/22 06:23:27;;;;;;;35.05;7.03;;;;;;;-146.27;97.34;42840.56;5068231;28;20017;-71
2024/02/22 06:25:54;;;;;;;44.28;7.47;;;;;;;-146.27;96.52;42723.22;5067389;28;20048;-73
2024/02/22 06:28:20;;;;;;;40.30;5.95;;;;;;;-146.27;95.91;42725.22;5067859;28;20085;-71
2024/02/22 06:30:46;;;;;;;44.35;7.13;;;;;;;-146.27;95.82;42790.84;5068191;28;20500;-72
2024/02/22 06:33:12;;;;;;;41.40;7.13;;;;;;;-146.27;96.08;42768.97;5069174;28;20061;-73
2024/02/22 06:35:37;;;;;;;48.40;7.35;;;;;;;-146.27;96.44;42774.94;5068679;28;20029;-72
2024/02/22 06:38:03;;;;;;;57.45;8.35;;;;;;;-146.27;96.54;42824.66;5068006;28;20081;-73
2024/02/22 06:40:29;;;;;;;25.88;6.80;;;;;;;-146.27;95.68;42782.91;5066764;28;20032;-74
2024/02/22 06:42:55;;;;;;;42.20;7.43;;;;;;;-146.27;95.53;42826.66;5066663;28;20039;-73
2024/02/22 06:45:23;;;;;;;30.58;6.15;;;;;;;-146.27;95.31;42770.97;5060711;28;20016;-74
2024/02/22 06:47:52;;;;;;;36.25;5.93;;;;;;;-146.27;96.04;42846.53;5069432;28;20028;-73
2024/02/22 06:50:17;;;;;;;33.58;7.28;;;;;;;-146.27;95.74;42822.69;5067038;28;20032;-73
2024/02/22 06:52:43;;;;;;;35.03;6.45;;;;;;;-146.27;94.99;42828.66;5058998;28;20492;-73
2024/02/22 06:55:10;;;;;;;28.95;6.22;;;;;;;-146.27;94.75;42774.94;5067282;28;20539;-73
2024/02/22 06:57:38;;;;;;;32.90;7.50;;;;;;;-146.27;94.03;42759.03;5068241;28;20021;-73
2024/02/22 07:00:05;;;;;;;27.90;6.38;;;;;;;-146.27;94.28;42812.72;5066009;28;21512;-74
2024/02/22 07:02:31;;;;;;;34.65;8.20;;;;;;;-146.27;94.43;42763.00;5068447;28;20396;-73
2024/02/22 07:04:56;;;;;;;40.28;8.10;;;;;;;-146.27;93.89;42767.00;5068455;28;20024;-74
2024/02/22 07:07:21;;;;;;;27.60;7.32;;;;;;;-146.27;95.19;42848.53;5064581;28;20539;-73
2024/02/22 07:09:47;;;;;;;33.83;9.95;;;;;;;-146.27;94.38;42822.69;5069356;28;20024;-72
2024/02/22 07:12:12;;;;;;;34.65;9.35;;;;;;;-146.27;93.81;42808.75;5064950;28;20060;-73
2024/02/22 07:14:38;;;;;;;35.85;9.88;;;;;;;-146.27;94.70;42926.09;5064415;28;20074;-74
2024/02/22 07:17:03;;;;;;;31.00;10.27;;;;;;;-146.27;94.24;42882.34;5067878;28;20066;-74
2024/02/22 07:19:29;;;;;;;32.33;9.50;;;;;;;-146.27;94.61;42816.72;5063331;28;20029;-74
2024/02/22 07:21:54;;;;;;;32.33;9.65;;;;;;;-146.27;94.42;42854.50;5065493;28;20661;-75
2024/02/22 07:24:20;;;;;;;30.05;9.45;;;;;;;-146.27;93.51;42870.41;5065539;28;20068;-73
2024/02/22 07:26:46;;;;;;;34.92;9.10;;;;;;;-146.27;93.92;42886.31;5069275;28;20045;-73
2024/02/22 07:29:11;;;;;;;33.53;8.95;;;;;;;-146.27;93.89;42866.44;5068612;28;20033;-74
2024/02/22 07:31:37;;;;;;;32.33;9.02;;;;;;;-146.27;93.25;42910.19;5067715;28;20036;-74
2024/02/22 07:34:02;;;;;;;34.60;9.45;;;;;;;-146.27;93.44;42874.38;5070025;28;20028;-73
2024/02/22 07:36:28;;;;;;;40.13;8.85;;;;;;;-146.27;93.32;42854.50;5069825;28;20035;-72
2024/02/22 07:38:53;;;;;;;30.00;8.25;;;;;;;-146.27;92.77;42870.41;5068381;28;20476;-72
2024/02/22 07:41:19;;;;;;;31.15;8.45;;;;;;;-146.27;92.50;42870.41;5066399;28;20025;-74
2024/02/22 07:43:46;;;;;;;24.00;7.90;;;;;;;-146.27;93.52;42965.88;5069652;28;20020;-73
2024/02/22 07:46:13;;;;;;;26.52;8.23;;;;;;;-146.27;93.68;42987.75;5071245;28;20032;-73
2024/02/22 07:48:39;;;;;;;19.83;7.93;;;;;;;-146.27;94.14;42993.72;5075289;28;20123;-72
2024/02/22 07:51:06;;;;;;;23.25;6.72;;;;;;;-146.27;94.94;43035.50;5070436;28;20074;-73
2024/02/22 07:53:34;;;;;;;35.72;7.85;;;;;;;-146.27;94.00;43049.41;5072046;28;20127;-74
2024/02/22 07:56:02;;;;;;;24.63;6.10;;;;;;;-146.27;94.94;43055.38;5072563;28;20032;-73
2024/02/22 07:58:28;;;;;;;24.25;7.10;;;;;;;-146.27;93.81;43029.53;5082500;28;20510;-73
2024/02/22 08:00:56;;;;;;;17.42;5.78;;;;;;;-146.27;94.20;43081.25;5084185;28;20108;-73
2024/02/22 08:03:21;;;;;;;16.20;6.05;;;;;;;-146.27;94.47;43049.41;5075502;28;20028;-75
2024/02/22 08:05:47;;;;;;;14.98;6.15;;;;;;;-146.27;93.46;43009.63;5077320;28;20100;-74
2024/02/22 08:08:14;;;;;;;22.75;5.85;;;;;;;-146.27;93.76;43093.19;5080955;28;20115;-74
2024/02/22 08:10:40;;;;;;;17.17;6.03;;;;;;;-146.27;93.68;43061.34;5079442;28;20055;-74
2024/02/22 08:13:05;;;;;;;14.07;6.15;;;;;;;-146.27;92.87;43025.56;5082332;28;20446;-73
2024/02/22 08:15:30;;;;;;;21.83;5.68;;;;;;;-146.27;92.57;43029.53;5077067;28;20431;-74
2024/02/22 08:17:56;;;;;;;16.63;5.40;;;;;;;-146.27;92.71;43041.47;5070689;28;20710;-75
2024/02/22 08:20:22;;;;;;;11.18;4.63;;;;;;;-146.27;93.36;43166.78;5072343;28;20032;-74
2024/02/22 08:22:47;;;;;;;13.55;5.50;;;;;;;-146.27;93.09;43091.19;5069149;28;20475;-75
2024/02/22 08:25:13;;;;;;;17.33;5.75;;;;;;;-146.27;92.23;43009.63;5069932;28;20025;-74
2024/02/22 08:27:38;;;;;;;19.08;5.63;;;;;;;-146.27;91.70;43013.63;5071371;28;20059;-74
2024/02/22 08:30:04;;;;;;;20.65;6.30;;;;;;;-146.27;91.98;43055.38;5071667;28;20598;-75
2024/02/22 08:32:30;;;;;;;22.33;6.43;;;;;;;-146.27;92.28;43089.19;5071207;28;20032;-75
2024/02/22 08:34:58;;;;;;;20.65;6.70;;;;;;;-146.27;92.28;43059.38;5075467;28;20021;-75
2024/02/22 08:37:23;;;;;;;23.38;6.80;;;;;;;-146.27;92.27;43081.25;5076044;28;20025;-74
2024/02/22 08:39:48;;;;;;;22.73;6.55;;;;;;;-146.27;92.04;43053.41;5072633;28;20511;-74
2024/02/22 08:42:14;;;;;;;16.23;6.85;;;;;;;-146.27;91.61;43049.41;5072229;28;20089;-73
2024/02/22 08:44:39;;;;;;;12.38;4.78;;;;;;;-146.27;91.80;43089.19;5071905;28;20126;-73
2024/02/22 08:47:05;;;;;;;12.25;4.85;;;;;;;-146.27;91.79;43097.16;5071859;28;20066;-75
2024/02/22 08:49:32;;;;;;;16.52;4.63;;;;;;;-146.27;91.36;43073.28;5078362;28;20028;-75
2024/02/22 08:52:01;;;;;;;12.80;4.90;;;;;;;-146.27;91.47;43128.97;5069452;28;20027;-74
2024/02/22 08:54:27;;;;;;;12.82;4.25;;;;;;;-146.27;91.48;43109.09;5067501;28;20103;-74
2024/02/22 08:56:52;;;;;;;13.60;4.50;;;;;;;-146.27;91.69;43105.13;5070196;28;20155;-74
2024/02/22 08:59:18;;;;;;;18.52;4.88;;;;;;;-146.27;91.21;43130.97;5069811;28;20597;-75
2024/02/22 09:01:43;;;;;;;13.32;5.20;;;;;;;-146.27;91.79;43142.91;5066005;28;20477;-74
2024/02/22 09:04:08;;;;;;;12.23;5.25;;;;;;;-146.27;91.36;43123.00;5070683;28;20419;-75
2024/02/22 09:06:34;;;;;;;12.52;6.32;;;;;;;-146.27;91.32;43198.59;5071685;28;20035;-75
2024/02/22 09:09:01;;;;;;;15.18;5.63;;;;;;;-146.27;91.24;43192.63;5070153;28;20094;-75
2024/02/22 09:11:27;;;;;;;18.27;5.90;;;;;;;-146.27;91.01;43156.84;5080386;28;20032;-74
2024/02/22 09:13:52;;;;;;;10.05;4.88;;;;;;;-146.27;90.34;43079.25;5072909;28;20028;-73
2024/02/22 09:16:18;;;;;;;13.80;5.35;;;;;;;-146.27;90.42;43105.13;5071975;28;20048;-72
2024/02/22 09:18:44;;;;;;;12.57;5.13;;;;;;;-146.27;90.47;43132.97;5073537;28;20025;-74
2024/02/22 09:21:10;;;;;;;15.38;5.40;;;;;;;-146.27;90.29;43105.13;5071492;28;20440;-72
2024/02/22 09:23:35;;;;;;;11.13;4.82;;;;;;;-146.27;90.19;43101.13;5071691;28;20046;-72
2024/02/22 09:26:01;;;;;;;16.17;5.90;;;;;;;-146.27;90.18;43186.66;5081137;28;20049;-72
2024/02/22 09:28:26;;;;;;;12.95;6.10;;;;;;;-146.27;90.18;43081.25;5070667;28;20048;-72
2024/02/22 09:30:51;;;;;;;10.73;5.43;;;;;;;-146.27;89.04;43059.38;5070576;28;20388;-73
2024/02/22 09:33:17;;;;;;;9.93;4.88;;;;;;;-146.27;87.62;42993.72;5071964;28;20107;-72
2024/02/22 09:35:45;;;;;;;10.43;4.93;;;;;;;-146.27;86.93;42977.81;5071129;28;20032;-72
2024/02/22 09:38:12;;;;;;;10.00;4.85;;;;;;;-146.27;86.18;42870.41;5071820;28;20074;-72
2024/02/22 09:40:38;;;;;;;12.07;4.40;;;;;;;-146.27;84.32;42880.34;5071152;28;20034;-72
2024/02/22 09:43:05;;;;;;;9.32;4.40;;;;;;;-146.27;85.18;43073.28;5070861;28;20400;-73
2024/02/22 09:45:31;;;;;;;6.00;3.78;;;;;;;-146.27;85.26;43138.94;5068912;28;20033;-72
2024/02/22 09:47:57;;;;;;;6.88;3.40;;;;;;;-146.27;85.04;43015.59;5070799;28;20036;-72
2024/02/22 09:50:22;;;;;;;8.68;3.95;;;;;;;-146.27;83.75;42973.84;5071291;28;20082;-72
2024/02/22 09:52:47;;;;;;;4.03;3.00;;;;;;;-146.27;83.85;42942.00;5071586;28;20025;-72
2024/02/22 09:55:14;;;;;;;10.50;3.65;;;;;;;-146.27;84.60;43101.13;5070745;28;20029;-72
2024/02/22 09:57:40;;;;;;;11.00;3.22;;;;;;;-146.27;84.10;42999.69;5070883;28;20412;-72
2024/02/22 10:00:06;;;;;;;5.55;2.65;;;;;;;-146.27;84.53;43125.00;5052779;28;20033;-72
2024/02/22 10:02:32;;;;;;;4.93;2.78;;;;;;;-146.27;84.13;43061.34;5051520;28;20100;-72
2024/02/22 10:04:59;;;;;;;4.93;2.83;;;;;;;-146.27;84.53;43081.25;5059627;28;20111;-72
2024/02/22 10:07:28;;;;;;;4.57;2.58;;;;;;;-146.27;84.31;43138.94;5070577;28;20024;-72
2024/02/22 10:09:53;;;;;;;5.05;2.53;;;;;;;-146.27;84.88;43148.88;5071059;28;20089;-73
2024/02/22 10:12:24;;;;;;;4.35;2.35;;;;;;;-146.27;85.37;43170.75;5071288;28;20244;-72
2024/02/22 10:14:49;;;;;;;4.40;1.95;;;;;;;-146.27;85.69;43216.50;5070080;28;20044;-72
2024/02/22 10:17:25;;;;;;;5.22;2.30;;;;;;;-146.27;84.76;43085.22;5051591;28;20021;-72
2024/02/22 10:20:09;;;;;;;3.92;2.58;;;;;;;-146.27;85.26;43168.75;5062073;28;20036;-74
2024/02/22 10:22:38;;;;;;;7.18;2.35;;;;;;;-146.27;85.10;43107.09;5071104;28;20103;-74
2024/02/22 10:25:12;;;;;;;3.35;2.40;;;;;;;-146.27;85.49;43119.03;5070294;28;20050;-74
2024/02/22 10:27:39;;;;;;;6.03;3.17;;;;;;;-146.27;85.24;43053.41;5069681;28;20485;-74
2024/02/22 10:30:09;;;;;;;5.00;3.20;;;;;;;-146.27;84.90;43059.38;5070947;28;20469;-74
2024/02/22 10:32:40;;;;;;;5.65;3.00;;;;;;;-146.27;85.09;42995.72;5070429;28;20469;-73
2024/02/22 10:35:07;;;;;;;5.43;3.05;;;;;;;-146.27;85.40;42973.84;5070191;28;20472;-74
2024/02/22 10:37:34;;;;;;;4.93;3.20;;;;;;;-146.27;84.58;42981.78;5070823;28;20539;-74
2024/02/22 10:40:03;;;;;;;4.18;3.28;;;;;;;-146.27;84.77;42973.84;5070746;28;20033;-74
2024/02/22 10:42:29;;;;;;;4.63;3.38;;;;;;;-146.27;84.57;42997.72;5069305;28;20041;-74
2024/02/22 10:44:55;;;;;;;5.32;3.55;;;;;;;-146.27;84.86;42979.81;5070094;28;20066;-74
2024/02/22 10:47:21;;;;;;;9.45;3.58;;;;;;;-146.27;84.96;42949.97;5070584;28;20020;-74
2024/02/22 10:49:48;;;;;;;4.90;3.42;;;;;;;-146.27;85.07;42930.09;5070509;28;20038;-74
2024/02/22 10:52:15;;;;;;;3.47;2.38;;;;;;;-146.27;85.32;42973.84;5070496;28;20447;-74
2024/02/22 10:54:47;;;;;;;4.13;3.03;;;;;;;-146.27;85.42;42932.06;5068243;28;20507;-74
2024/02/22 10:57:14;;;;;;;3.97;2.55;;;;;;;-146.27;85.71;42926.09;5070595;28;20032;-74
2024/02/22 10:59:41;;;;;;;2.90;2.65;;;;;;;-146.27;85.90;42890.31;5070554;28;20032;-74
2024/02/22 11:02:08;;;;;;;3.03;2.50;;;;;;;-146.27;85.81;42930.09;5070561;28;20039;-75
2024/02/22 11:04:34;;;;;;;5.40;2.53;;;;;;;-146.27;85.73;42906.22;5070326;28;20044;-74